map of CCR home
CCR - Airport
Location
City:  Concord, California, United States
Name:Buchanan Field
ICAO:KCCR
IATA:CCR
FAA LID:CCR

Details
Type:Airport (Part 139 Class IV)
Use:Public/Civil
Latitude:3759'23"N (37.989667)
Longitude:12203'25"W (-122.056888)
Datum:WGS 1984
Elevation:25 ft (8 m)
Variation:13.44E (WMM2015v2 magnetic declination)
-0.08 annual change
Runways:4
Longest:5001 × 150 ft (1524 × 45.5 m), paved

Time
Time Zone:UTC-8 (DST-7)
Local Time:

Weather
METAR:KCCR 041411Z 28012G21KT 7SM -RA SCT020 SCT032 OVC043 10/07 A2953 RMK AO2 P0001 T01000067

Related Locations
Nearby:
Farthest:FTU: 11334 mi / 18240 km
Tolagnaro [Maurillac Airport (Fort Dauphin Airport)], MG

Find:

   beyond  
but within

Other Information
Maps:
NOTAMs:
Links:
Sources:

  
  • flag of United States
  • flag of California
  

Airport Diagram

Airport diagram for CCR

Airport diagram PDF from FAA

Sectional Chart

Flight Planning
at skyvector.com

Satellite Image

Google Maps Satellite view

 

Copyright © 2004-2019 Karl L. Swartz. All rights reserved.
The Great Circle Mapper name and logo are trademarks of the Great Circle Mapper.
All other trademarks mentioned herein belong to their respective owners.
Please see credits for attibutions and further copyright information.

  Follow gcmap on Facebook Follow gcmap on Twitter GCmap on LinkedIn

hCard Microformat

Geo Microformat